Time;durP1;ratioP1;P1;durP2;ratioP2;P2;SDS_P1;SDS_P2;PMS_P1;PMS_P2;Temp;Humidity;BMP_temperature;BMP_pressure;BME280_temperature;BME280_humidity;BME280_pressure;Samples;Min_cycle;Max_cycle;Signal;HPM_P1;HPM_P2
2022/08/24 00:01:10;;;;;;;10.65;9.15;;;;;;;;;;5075037;28;20076;-75
2022/08/24 00:03:38;;;;;;;13.18;9.90;;;;;;;;;;5090346;28;20028;-84
2022/08/24 00:06:09;;;;;;;12.13;9.85;;;;;;;;;;5081998;28;20051;-84
2022/08/24 00:08:36;;;;;;;12.88;9.82;;;;;;;;;;5073449;28;20063;-84
2022/08/24 00:11:03;;;;;;;11.00;9.77;;;;;;;;;;5073239;28;20024;-84
2022/08/24 00:13:29;;;;;;;12.85;9.57;;;;;;;;;;5074608;28;20050;-72
2022/08/24 00:15:55;;;;;;;12.50;9.68;;;;;;;;;;5073428;28;20115;-83
2022/08/24 00:18:22;;;;;;;12.50;10.02;;;;;;;;;;5073163;28;20069;-81
2022/08/24 00:20:48;;;;;;;13.23;10.52;;;;;;;;;;5072490;28;20033;-81
2022/08/24 00:23:14;;;;;;;14.57;9.90;;;;;;;;;;5073659;28;20493;-72
2022/08/24 00:25:41;;;;;;;11.85;9.85;;;;;;;;;;5062236;28;20020;-73
2022/08/24 00:28:07;;;;;;;14.10;11.07;;;;;;;;;;5073345;28;20024;-72
2022/08/24 00:30:34;;;;;;;12.73;10.48;;;;;;;;;;5079063;28;20035;-74
2022/08/24 00:33:00;;;;;;;13.35;10.82;;;;;;;;;;5076765;28;20094;-87
2022/08/24 00:35:26;;;;;;;14.48;11.00;;;;;;;;;;5073113;28;20032;-85
2022/08/24 00:37:52;;;;;;;16.17;10.88;;;;;;;;;;5072915;28;20028;-80
2022/08/24 00:40:32;;;;;;;16.10;11.75;;;;;;;;;;5082093;28;20515;-84
2022/08/24 00:43:03;;;;;;;14.45;11.88;;;;;;;;;;5075821;28;20031;-84
2022/08/24 00:45:29;;;;;;;13.60;11.98;;;;;;;;;;5075193;28;20107;-81
2022/08/24 00:48:01;;;;;;;14.65;11.98;;;;;;;;;;5074608;28;20031;-80
2022/08/24 00:50:44;;;;;;;18.92;12.35;;;;;;;;;;5070708;28;20036;-72
2022/08/24 00:53:31;;;;;;;15.23;12.52;;;;;;;;;;5071983;28;20024;-76
2022/08/24 00:55:59;;;;;;;16.50;12.52;;;;;;;;;;5072987;28;20130;-73
2022/08/24 00:58:47;;;;;;;;;;;;;;;;;;;;;
2022/08/24 01:01:13;;;;;;;17.00;11.88;;;;;;;;;;5070029;28;20032;-80
2022/08/24 01:03:41;;;;;;;16.58;12.93;;;;;;;;;;5066922;28;20024;-77
2022/08/24 01:06:07;;;;;;;16.17;12.30;;;;;;;;;;5073329;28;20032;-80
2022/08/24 01:08:34;;;;;;;16.58;12.38;;;;;;;;;;5064614;28;20020;-85
2022/08/24 01:11:06;;;;;;;16.92;12.85;;;;;;;;;;5079274;28;20437;-75
2022/08/24 01:13:33;;;;;;;18.33;12.93;;;;;;;;;;5073546;28;20111;-86
2022/08/24 01:16:01;;;;;;;15.68;12.68;;;;;;;;;;5072645;28;20055;-85
2022/08/24 01:21:15;;;;;;;16.02;12.73;;;;;;;;;;5067973;28;20112;-83
2022/08/24 01:23:42;;;;;;;16.48;12.15;;;;;;;;;;5059244;28;20020;-85
2022/08/24 01:26:10;;;;;;;17.95;13.13;;;;;;;;;;5072497;28;20032;-85
2022/08/24 01:28:38;;;;;;;14.48;12.38;;;;;;;;;;5063819;28;20028;-79
2022/08/24 01:31:05;;;;;;;17.05;12.55;;;;;;;;;;5062381;28;20036;-83
2022/08/24 01:33:31;;;;;;;16.17;12.98;;;;;;;;;;5070500;28;20020;-84
2022/08/24 01:36:00;;;;;;;16.13;12.63;;;;;;;;;;5072488;28;20020;-83
2022/08/24 01:38:27;;;;;;;17.95;12.90;;;;;;;;;;5072568;28;20031;-82
2022/08/24 01:40:56;;;;;;;16.55;13.18;;;;;;;;;;5072138;28;20047;-81
2022/08/24 01:43:23;;;;;;;21.45;16.75;;;;;;;;;;5080447;28;20028;-84
2022/08/24 01:45:49;;;;;;;17.38;13.50;;;;;;;;;;5072357;28;20020;-82
2022/08/24 01:48:23;;;;;;;18.65;13.23;;;;;;;;;;5075624;28;20024;-84
2022/08/24 01:50:51;;;;;;;18.10;13.50;;;;;;;;;;5070732;28;20519;-82
2022/08/24 01:53:18;;;;;;;18.40;13.15;;;;;;;;;;5074804;28;20040;-82
2022/08/24 01:55:44;;;;;;;18.23;12.80;;;;;;;;;;5076451;28;20150;-83
2022/08/24 01:58:11;;;;;;;14.68;12.50;;;;;;;;;;5075958;28;20029;-82
2022/08/24 02:00:37;;;;;;;14.63;12.93;;;;;;;;;;5076967;28;20378;-81
2022/08/24 02:03:03;;;;;;;17.20;13.15;;;;;;;;;;5077391;28;20029;-82
2022/08/24 02:05:37;;;;;;;15.98;12.93;;;;;;;;;;5084928;28;20031;-84
2022/08/24 02:08:04;;;;;;;16.77;12.70;;;;;;;;;;5077268;28;20062;-84
2022/08/24 02:10:30;;;;;;;18.27;12.63;;;;;;;;;;5075541;28;20040;-83
2022/08/24 02:13:00;;;;;;;16.77;13.43;;;;;;;;;;5081673;28;20136;-73
2022/08/24 02:15:32;;;;;;;18.80;12.90;;;;;;;;;;5075374;28;20037;-82
2022/08/24 02:17:59;;;;;;;16.43;13.57;;;;;;;;;;5084553;28;20051;-82
2022/08/24 02:20:26;;;;;;;15.95;13.32;;;;;;;;;;5083774;28;20174;-82
2022/08/24 02:22:53;;;;;;;16.65;13.25;;;;;;;;;;5061016;28;20029;-84
2022/08/24 02:25:19;;;;;;;15.77;12.70;;;;;;;;;;5075339;28;20496;-74
2022/08/24 02:27:45;;;;;;;18.10;13.73;;;;;;;;;;5079086;28;20028;-81
2022/08/24 02:30:11;;;;;;;14.85;12.68;;;;;;;;;;5077978;28;20545;-79
2022/08/24 02:32:38;;;;;;;17.88;13.35;;;;;;;;;;5075500;28;20085;-72
2022/08/24 02:35:04;;;;;;;17.60;14.18;;;;;;;;;;5075467;28;20083;-84
2022/08/24 02:37:30;;;;;;;19.88;13.68;;;;;;;;;;5077796;28;20056;-83
2022/08/24 02:39:56;;;;;;;14.45;12.55;;;;;;;;;;5074386;28;20028;-73
2022/08/24 02:42:22;;;;;;;16.42;13.57;;;;;;;;;;5074932;28;20039;-81
2022/08/24 02:44:48;;;;;;;19.55;13.57;;;;;;;;;;5067198;28;20044;-82
2022/08/24 02:47:14;;;;;;;19.38;14.55;;;;;;;;;;5087694;28;20024;-83
2022/08/24 02:49:49;;;;;;;20.00;13.35;;;;;;;;;;5077263;28;20020;-84
2022/08/24 02:52:15;;;;;;;17.27;13.68;;;;;;;;;;5075235;28;20016;-83
2022/08/24 02:54:41;;;;;;;18.60;13.48;;;;;;;;;;5073263;28;20125;-83
2022/08/24 02:57:08;;;;;;;18.17;13.60;;;;;;;;;;5075843;28;20024;-79
2022/08/24 02:59:34;;;;;;;18.08;14.13;;;;;;;;;;5074264;28;20505;-81
2022/08/24 03:02:00;;;;;;;17.73;13.95;;;;;;;;;;5077330;28;20049;-85
2022/08/24 03:04:26;;;;;;;20.58;14.75;;;;;;;;;;5058953;28;20027;-86
2022/08/24 03:06:52;;;;;;;17.05;14.15;;;;;;;;;;5075054;28;20076;-73
2022/08/24 03:09:18;;;;;;;23.52;14.55;;;;;;;;;;5074409;28;20021;-77
2022/08/24 03:11:44;;;;;;;18.80;14.18;;;;;;;;;;5061266;28;20016;-82
2022/08/24 03:14:10;;;;;;;19.73;14.80;;;;;;;;;;5074778;28;20432;-84
2022/08/24 03:16:37;;;;;;;21.42;16.27;;;;;;;;;;5074909;28;20017;-72
2022/08/24 03:19:03;;;;;;;24.25;16.45;;;;;;;;;;5063319;28;20025;-78
2022/08/24 03:21:29;;;;;;;23.65;18.10;;;;;;;;;;5071001;28;20028;-77
2022/08/24 03:23:55;;;;;;;26.73;19.50;;;;;;;;;;5086011;28;20020;-83
2022/08/24 03:26:21;;;;;;;22.20;17.77;;;;;;;;;;5077047;28;20025;-83
2022/08/24 03:28:48;;;;;;;23.58;16.85;;;;;;;;;;5074887;28;20485;-72
2022/08/24 03:31:14;;;;;;;20.92;16.40;;;;;;;;;;5072009;28;20029;-85
2022/08/24 03:33:40;;;;;;;22.75;16.10;;;;;;;;;;5074388;28;20021;-85
2022/08/24 03:36:07;;;;;;;21.90;17.38;;;;;;;;;;5074316;28;20056;-81
2022/08/24 03:38:33;;;;;;;23.08;18.05;;;;;;;;;;5078039;28;20081;-73
2022/08/24 03:41:07;;;;;;;25.23;18.15;;;;;;;;;;5078740;28;20044;-85
2022/08/24 03:43:45;;;;;;;23.60;17.95;;;;;;;;;;5072910;28;20024;-85
2022/08/24 03:46:12;;;;;;;24.00;17.10;;;;;;;;;;5074633;28;20032;-85
2022/08/24 03:48:40;;;;;;;21.73;17.10;;;;;;;;;;5082283;28;20079;-84
2022/08/24 03:51:12;;;;;;;24.02;18.55;;;;;;;;;;5073923;28;20029;-72
2022/08/24 03:53:38;;;;;;;20.75;17.65;;;;;;;;;;5068797;28;20064;-72
2022/08/24 03:56:04;;;;;;;22.60;17.77;;;;;;;;;;5073988;28;20039;-83
2022/08/24 03:58:30;;;;;;;21.33;16.52;;;;;;;;;;5074354;28;20017;-85
2022/08/24 04:00:57;;;;;;;24.60;18.63;;;;;;;;;;5074602;28;20083;-72
2022/08/24 04:03:23;;;;;;;22.33;17.75;;;;;;;;;;5073558;28;20020;-84
2022/08/24 04:05:49;;;;;;;24.30;17.90;;;;;;;;;;5073620;28;20067;-86
2022/08/24 04:08:15;;;;;;;24.08;18.10;;;;;;;;;;5073792;28;20020;-80
2022/08/24 04:10:45;;;;;;;23.25;17.42;;;;;;;;;;5078619;28;20028;-84
2022/08/24 04:13:12;;;;;;;22.38;16.65;;;;;;;;;;5074152;28;20386;-77
2022/08/24 04:15:42;;;;;;;20.67;16.98;;;;;;;;;;5073687;28;20044;-84
2022/08/24 04:18:08;;;;;;;21.13;17.05;;;;;;;;;;5071588;28;20097;-72
2022/08/24 04:20:38;;;;;;;21.55;17.33;;;;;;;;;;5059984;28;20777;-74
2022/08/24 04:23:06;;;;;;;24.80;18.05;;;;;;;;;;5069065;28;20171;-79
2022/08/24 04:25:38;;;;;;;22.65;18.42;;;;;;;;;;5072488;28;20466;-83
2022/08/24 04:28:04;;;;;;;22.55;17.75;;;;;;;;;;5070377;28;20032;-78
2022/08/24 04:30:30;;;;;;;23.00;17.50;;;;;;;;;;5072259;28;20021;-83
2022/08/24 04:32:57;;;;;;;23.08;17.33;;;;;;;;;;5073777;28;20029;-78
2022/08/24 04:35:23;;;;;;;20.48;16.85;;;;;;;;;;5079610;28;20031;-73
2022/08/24 04:37:49;;;;;;;23.40;17.55;;;;;;;;;;5078691;28;20016;-74
2022/08/24 04:40:15;;;;;;;21.23;16.77;;;;;;;;;;5075050;28;20567;-79
2022/08/24 04:42:41;;;;;;;20.88;16.60;;;;;;;;;;5072269;28;20067;-88
2022/08/24 04:45:07;;;;;;;22.50;17.05;;;;;;;;;;5072576;28;20394;-86
2022/08/24 04:47:34;;;;;;;23.50;18.45;;;;;;;;;;5079329;28;20046;-83
2022/08/24 04:50:00;;;;;;;22.65;18.25;;;;;;;;;;5072307;28;20036;-76
2022/08/24 04:52:26;;;;;;;24.35;18.02;;;;;;;;;;5076175;28;20049;-78
2022/08/24 04:54:52;;;;;;;23.92;18.05;;;;;;;;;;5067705;28;20032;-74
2022/08/24 04:57:18;;;;;;;28.33;18.67;;;;;;;;;;5088233;28;20031;-75
2022/08/24 04:59:44;;;;;;;20.52;17.08;;;;;;;;;;5076169;28;20103;-77
2022/08/24 05:02:10;;;;;;;24.45;18.42;;;;;;;;;;5074075;28;20078;-75
2022/08/24 05:04:38;;;;;;;22.27;17.73;;;;;;;;;;5073093;28;20057;-78
2022/08/24 05:07:04;;;;;;;21.27;18.00;;;;;;;;;;5090863;28;20026;-75
2022/08/24 05:09:30;;;;;;;22.20;18.15;;;;;;;;;;5081045;28;20513;-78
2022/08/24 05:11:56;;;;;;;23.42;18.20;;;;;;;;;;5072401;28;20051;-87
2022/08/24 05:14:22;;;;;;;21.52;17.35;;;;;;;;;;5057469;28;20041;-85
2022/08/24 05:16:49;;;;;;;22.08;16.80;;;;;;;;;;5083133;28;20039;-86
2022/08/24 05:19:15;;;;;;;22.33;17.02;;;;;;;;;;5075645;28;20082;-81
2022/08/24 05:21:43;;;;;;;23.85;17.98;;;;;;;;;;5070805;28;20496;-86
2022/08/24 05:24:09;;;;;;;24.92;18.05;;;;;;;;;;5085570;28;20024;-73
2022/08/24 05:26:36;;;;;;;22.60;17.85;;;;;;;;;;5083614;28;20492;-76
2022/08/24 05:29:03;;;;;;;25.55;19.80;;;;;;;;;;5072037;28;20040;-77
2022/08/24 05:31:30;;;;;;;21.85;17.60;;;;;;;;;;5073871;28;20123;-77
2022/08/24 05:33:57;;;;;;;20.83;18.42;;;;;;;;;;5073584;28;20125;-74
2022/08/24 05:36:25;;;;;;;22.77;17.98;;;;;;;;;;5081039;28;20402;-74
2022/08/24 05:38:52;;;;;;;24.83;18.50;;;;;;;;;;5079007;28;20425;-79
2022/08/24 05:41:19;;;;;;;21.08;16.85;;;;;;;;;;5076085;28;20028;-78
2022/08/24 05:43:46;;;;;;;22.88;18.05;;;;;;;;;;5070748;28;20031;-76
2022/08/24 05:46:12;;;;;;;24.73;18.45;;;;;;;;;;5069335;28;20024;-85
2022/08/24 05:48:38;;;;;;;22.67;18.38;;;;;;;;;;5076518;28;20025;-75
2022/08/24 05:51:06;;;;;;;21.90;17.50;;;;;;;;;;5072038;28;20114;-75
2022/08/24 05:53:32;;;;;;;23.85;18.35;;;;;;;;;;5073020;28;20017;-72
2022/08/24 05:56:02;;;;;;;23.25;17.58;;;;;;;;;;5072429;28;20409;-87
2022/08/24 05:58:36;;;;;;;24.52;18.75;;;;;;;;;;5086389;28;20056;-85
2022/08/24 06:01:13;;;;;;;20.70;16.75;;;;;;;;;;5061870;28;20712;-87
2022/08/24 06:03:39;;;;;;;21.98;18.08;;;;;;;;;;5070243;28;20127;-83
2022/08/24 06:06:07;;;;;;;19.05;16.08;;;;;;;;;;5076692;28;20024;-84
2022/08/24 06:08:37;;;;;;;19.35;17.13;;;;;;;;;;5080234;28;20021;-92
2022/08/24 06:11:04;;;;;;;19.10;16.70;;;;;;;;;;5072411;28;20037;-78
2022/08/24 06:13:30;;;;;;;21.23;17.63;;;;;;;;;;5070671;28;20391;-89
2022/08/24 06:16:12;;;;;;;20.65;16.98;;;;;;;;;;5068982;28;20028;-84
2022/08/24 06:18:39;;;;;;;20.73;17.63;;;;;;;;;;5075522;28;20028;-80
2022/08/24 06:21:12;;;;;;;19.60;16.30;;;;;;;;;;5069642;28;20115;-82
2022/08/24 06:23:39;;;;;;;24.20;17.58;;;;;;;;;;5078531;28;20020;-88
2022/08/24 06:28:51;;;;;;;22.98;15.48;;;;;;;;;;5067258;28;20052;-77
2022/08/24 06:31:18;;;;;;;21.80;16.73;;;;;;;;;;5073653;28;20021;-77
2022/08/24 06:33:44;;;;;;;21.50;17.00;;;;;;;;;;5071852;28;20021;-76
2022/08/24 06:36:10;;;;;;;22.40;17.10;;;;;;;;;;5074957;28;20089;-77
2022/08/24 06:38:36;;;;;;;22.13;17.52;;;;;;;;;;5078347;28;20466;-75
2022/08/24 06:41:02;;;;;;;21.73;17.52;;;;;;;;;;5076955;28;20016;-75
2022/08/24 06:43:29;;;;;;;20.63;17.27;;;;;;;;;;5082584;28;20469;-78
2022/08/24 06:45:56;;;;;;;20.20;15.98;;;;;;;;;;5073866;28;20082;-74
2022/08/24 06:48:22;;;;;;;20.20;16.88;;;;;;;;;;5084191;28;20034;-76
2022/08/24 06:50:48;;;;;;;22.50;16.52;;;;;;;;;;5077934;28;20378;-87
2022/08/24 06:53:15;;;;;;;18.50;14.85;;;;;;;;;;5076501;28;20028;-85
2022/08/24 06:55:55;;;;;;;16.40;14.68;;;;;;;;;;5084253;28;20141;-82
2022/08/24 06:58:21;;;;;;;18.38;14.73;;;;;;;;;;5068570;28;20017;-81
2022/08/24 07:00:47;;;;;;;16.70;14.02;;;;;;;;;;5066117;28;20426;-81
2022/08/24 07:03:14;;;;;;;16.17;14.27;;;;;;;;;;5070334;28;20030;-80
2022/08/24 07:05:41;;;;;;;18.08;14.20;;;;;;;;;;5071587;28;20021;-84
2022/08/24 07:08:07;;;;;;;16.85;13.57;;;;;;;;;;5074778;28;20024;-86
2022/08/24 07:10:35;;;;;;;15.93;14.13;;;;;;;;;;5065425;28;20436;-78
2022/08/24 07:13:02;;;;;;;19.77;16.65;;;;;;;;;;5070984;28;20043;-79
2022/08/24 07:15:28;;;;;;;18.10;13.85;;;;;;;;;;5076411;28;20162;-87
2022/08/24 07:17:54;;;;;;;16.88;13.57;;;;;;;;;;5074737;28;20056;-92
2022/08/24 07:20:20;;;;;;;14.60;13.00;;;;;;;;;;5074299;28;20086;-89
2022/08/24 07:22:47;;;;;;;15.80;12.38;;;;;;;;;;5073475;28;20043;-82
2022/08/24 07:25:13;;;;;;;13.57;12.05;;;;;;;;;;5073583;28;20029;-86
2022/08/24 07:27:39;;;;;;;16.55;12.85;;;;;;;;;;5077577;28;20027;-82
2022/08/24 07:30:06;;;;;;;15.07;12.73;;;;;;;;;;5076247;28;20115;-84
2022/08/24 07:32:32;;;;;;;15.05;12.30;;;;;;;;;;5076227;28;20025;-81
2022/08/24 07:34:58;;;;;;;15.93;13.20;;;;;;;;;;5076069;28;20035;-86
2022/08/24 07:37:26;;;;;;;15.48;12.30;;;;;;;;;;5079985;28;20466;-80
2022/08/24 07:39:53;;;;;;;14.00;12.50;;;;;;;;;;5075657;28;20028;-86
2022/08/24 07:42:19;;;;;;;16.30;12.45;;;;;;;;;;5072240;28;20093;-81
2022/08/24 07:44:45;;;;;;;15.93;12.30;;;;;;;;;;5073972;28;20478;-79
2022/08/24 07:47:11;;;;;;;14.70;12.02;;;;;;;;;;5071500;28;20386;-75
2022/08/24 07:49:37;;;;;;;77.65;63.70;;;;;;;;;;5080213;28;20028;-78
2022/08/24 07:52:04;;;;;;;16.83;12.68;;;;;;;;;;5080042;28;20028;-77
2022/08/24 07:54:30;;;;;;;18.27;13.52;;;;;;;;;;5075394;28;20115;-76
2022/08/24 07:57:16;;;;;;;17.58;14.60;;;;;;;;;;5082336;28;20115;-79
2022/08/24 07:59:42;;;;;;;20.73;14.52;;;;;;;;;;5067698;28;20021;-78
2022/08/24 08:02:10;;;;;;;18.63;14.90;;;;;;;;;;5069947;28;20096;-82
2022/08/24 08:04:36;;;;;;;17.80;14.95;;;;;;;;;;5066892;28;20107;-80
2022/08/24 08:07:06;;;;;;;20.08;15.70;;;;;;;;;;5078936;28;20024;-86
2022/08/24 08:09:32;;;;;;;20.25;15.02;;;;;;;;;;5090677;28;20052;-78
2022/08/24 08:12:18;;;;;;;18.90;14.93;;;;;;;;;;5074023;28;20477;-71
2022/08/24 08:14:45;;;;;;;20.50;15.52;;;;;;;;;;5064225;28;20461;-79
2022/08/24 08:17:12;;;;;;;20.83;15.68;;;;;;;;;;5063833;28;20095;-77
2022/08/24 08:19:44;;;;;;;21.17;15.80;;;;;;;;;;5065000;28;20082;-75
2022/08/24 08:24:55;;;;;;;21.75;15.40;;;;;;;;;;5072624;28;20054;-80
2022/08/24 08:27:23;;;;;;;21.27;16.48;;;;;;;;;;5062571;28;20031;-83
2022/08/24 08:29:54;;;;;;;20.00;16.85;;;;;;;;;;5068815;28;20017;-83
2022/08/24 08:32:20;;;;;;;22.08;15.10;;;;;;;;;;5067255;28;20036;-80
2022/08/24 08:34:46;;;;;;;26.05;15.32;;;;;;;;;;5078177;28;20138;-74
2022/08/24 08:37:13;;;;;;;21.63;15.93;;;;;;;;;;5065715;28;20486;-72
2022/08/24 08:39:48;;;;;;;18.85;15.73;;;;;;;;;;5075278;28;20023;-77
2022/08/24 08:42:27;;;;;;;19.13;14.95;;;;;;;;;;5080992;28;20023;-73
2022/08/24 08:45:02;;;;;;;20.50;14.73;;;;;;;;;;5078134;28;20027;-80
2022/08/24 08:47:47;;;;;;;16.98;14.43;;;;;;;;;;5073157;28;20025;-78
2022/08/24 08:50:16;;;;;;;16.42;13.75;;;;;;;;;;5067946;28;20521;-76
2022/08/24 08:52:55;;;;;;;15.93;13.40;;;;;;;;;;5065031;28;20030;-71
2022/08/24 08:55:33;;;;;;;80.28;67.70;;;;;;;;;;5067534;28;20036;-76
2022/08/24 08:58:18;;;;;;;28.30;22.25;;;;;;;;;;5085748;28;20024;-78
2022/08/24 09:01:13;;;;;;;18.33;14.88;;;;;;;;;;5069994;28;20090;-74
2022/08/24 09:04:07;;;;;;;19.13;13.88;;;;;;;;;;5060021;28;20115;-75
2022/08/24 09:06:36;;;;;;;19.15;14.07;;;;;;;;;;5071628;28;20054;-75
2022/08/24 09:09:25;;;;;;;17.25;14.60;;;;;;;;;;5082408;28;20024;-76
2022/08/24 09:12:09;;;;;;;18.17;14.30;;;;;;;;;;5062629;28;20020;-75
2022/08/24 09:14:48;;;;;;;18.98;14.25;;;;;;;;;;5071450;28;20043;-75
2022/08/24 09:17:33;;;;;;;18.70;14.98;;;;;;;;;;5066514;28;20023;-78
2022/08/24 09:20:18;;;;;;;20.27;15.30;;;;;;;;;;5078527;28;20104;-77
2022/08/24 09:22:48;;;;;;;20.05;14.90;;;;;;;;;;5070920;28;20040;-71
2022/08/24 09:25:49;;;;;;;15.77;14.10;;;;;;;;;;5079301;28;20031;-74
2022/08/24 09:28:34;;;;;;;17.40;14.55;;;;;;;;;;5039342;28;20032;-78
2022/08/24 09:31:19;;;;;;;19.98;14.80;;;;;;;;;;5072197;28;20081;-78
2022/08/24 09:33:47;;;;;;;18.25;14.90;;;;;;;;;;5074995;28;20485;-75
2022/08/24 09:36:29;;;;;;;17.67;14.90;;;;;;;;;;5072873;28;20051;-75
2022/08/24 09:39:06;;;;;;;16.85;14.85;;;;;;;;;;5085927;28;20017;-78
2022/08/24 09:41:50;;;;;;;23.17;15.43;;;;;;;;;;5070711;28;20024;-77
2022/08/24 09:44:31;;;;;;;22.63;15.02;;;;;;;;;;5070772;28;20044;-75
2022/08/24 09:47:09;;;;;;;21.83;15.20;;;;;;;;;;5070710;28;20071;-77
2022/08/24 09:49:54;;;;;;;19.63;14.52;;;;;;;;;;5063701;28;20032;-73
2022/08/24 09:52:39;;;;;;;20.10;13.82;;;;;;;;;;5067334;28;20070;-71
2022/08/24 09:55:18;;;;;;;20.83;13.30;;;;;;;;;;5062238;28;20036;-77
2022/08/24 09:58:02;;;;;;;20.30;13.88;;;;;;;;;;5068580;28;20544;-77
2022/08/24 10:00:41;;;;;;;16.27;13.98;;;;;;;;;;5057822;28;20368;-72
2022/08/24 10:03:13;;;;;;;21.95;14.30;;;;;;;;;;5060100;28;20139;-75
2022/08/24 10:06:09;;;;;;;21.48;13.88;;;;;;;;;;5067785;28;20020;-72
2022/08/24 10:08:38;;;;;;;20.20;14.68;;;;;;;;;;5008342;28;20034;-76
2022/08/24 10:11:13;;;;;;;27.73;15.00;;;;;;;;;;5009208;28;20037;-73
2022/08/24 10:13:59;;;;;;;19.95;15.15;;;;;;;;;;5010643;28;20116;-73
2022/08/24 10:16:25;;;;;;;18.25;14.55;;;;;;;;;;5004791;28;20034;-80
2022/08/24 10:18:51;;;;;;;32.95;16.70;;;;;;;;;;5011434;28;20112;-78
2022/08/24 10:21:26;;;;;;;17.42;14.60;;;;;;;;;;5013623;28;20108;-76
2022/08/24 10:24:07;;;;;;;15.93;13.55;;;;;;;;;;5015807;28;20038;-76
2022/08/24 10:26:48;;;;;;;17.42;14.02;;;;;;;;;;5012143;28;20121;-75
2022/08/24 10:29:33;;;;;;;14.77;12.93;;;;;;;;;;5009667;28;20069;-75
2022/08/24 10:32:21;;;;;;;20.60;13.98;;;;;;;;;;5007308;28;20041;-72
2022/08/24 10:34:47;;;;;;;15.93;13.45;;;;;;;;;;4991509;28;20050;-76
2022/08/24 10:37:38;;;;;;;15.77;13.82;;;;;;;;;;5004137;28;20026;-77
2022/08/24 10:40:05;;;;;;;17.42;13.57;;;;;;;;;;5011395;28;20511;-76
2022/08/24 10:45:48;;;;;;;15.95;13.55;;;;;;;;;;5063574;28;20035;-77
2022/08/24 10:48:29;;;;;;;14.93;13.25;;;;;;;;;;5072568;28;20394;-77
2022/08/24 10:50:59;;;;;;;15.60;14.00;;;;;;;;;;5066596;28;20036;-77
2022/08/24 10:53:26;;;;;;;16.77;13.68;;;;;;;;;;5066508;28;20025;-77
2022/08/24 10:56:04;;;;;;;17.73;13.18;;;;;;;;;;5064538;28;20037;-77
2022/08/24 10:58:42;;;;;;;16.35;12.85;;;;;;;;;;5067383;28;20028;-77
2022/08/24 11:01:17;;;;;;;17.25;12.63;;;;;;;;;;5055273;28;20052;-77
2022/08/24 11:03:53;;;;;;;14.13;12.73;;;;;;;;;;5073563;28;20455;-76
2022/08/24 11:06:19;;;;;;;16.17;13.95;;;;;;;;;;5069355;28;20035;-73
2022/08/24 11:08:53;;;;;;;14.40;12.93;;;;;;;;;;5057932;28;20470;-75
2022/08/24 11:11:29;;;;;;;14.82;13.23;;;;;;;;;;5068197;28;20052;-75
2022/08/24 11:13:59;;;;;;;14.70;12.77;;;;;;;;;;5060515;28;20029;-75
2022/08/24 11:16:29;;;;;;;16.40;13.43;;;;;;;;;;5060533;28;20032;-69
2022/08/24 11:18:55;;;;;;;27.98;13.20;;;;;;;;;;5055468;28;20387;-75
2022/08/24 11:21:39;;;;;;;17.02;14.60;;;;;;;;;;5070418;28;20021;-76
2022/08/24 11:24:11;;;;;;;14.65;12.93;;;;;;;;;;5074777;28;20390;-75
2022/08/24 11:27:06;;;;;;;14.95;13.40;;;;;;;;;;5071532;28;20024;-74
2022/08/24 11:29:50;;;;;;;14.30;12.80;;;;;;;;;;5011148;28;20129;-75
2022/08/24 11:32:28;;;;;;;18.38;13.70;;;;;;;;;;5012983;28;20026;-75
2022/08/24 11:34:55;;;;;;;19.75;14.65;;;;;;;;;;5012247;28;20037;-75
2022/08/24 11:37:23;;;;;;;16.17;13.50;;;;;;;;;;5012814;28;20530;-75
2022/08/24 11:39:49;;;;;;;16.85;14.35;;;;;;;;;;5012501;28;20387;-75
2022/08/24 11:42:30;;;;;;;15.77;13.32;;;;;;;;;;5012620;28;20491;-74
2022/08/24 11:45:08;;;;;;;16.25;14.27;;;;;;;;;;5013128;28;20133;-76
2022/08/24 11:47:41;;;;;;;19.92;13.60;;;;;;;;;;5011768;28;20038;-73
2022/08/24 11:50:36;;;;;;;19.20;13.82;;;;;;;;;;5012466;28;20503;-74
2022/08/24 11:53:18;;;;;;;15.23;13.60;;;;;;;;;;4943782;29;20046;-76
2022/08/24 11:56:16;;;;;;;14.88;13.32;;;;;;;;;;4949876;29;20118;-75
2022/08/24 11:58:47;;;;;;;14.63;13.13;;;;;;;;;;4916093;29;20132;-76
2022/08/24 12:01:17;;;;;;;23.67;14.18;;;;;;;;;;4909626;29;20040;-75
2022/08/24 12:04:19;;;;;;;18.90;13.68;;;;;;;;;;4916074;29;20051;-75
2022/08/24 12:06:47;;;;;;;23.30;14.32;;;;;;;;;;4891564;29;20040;-74
2022/08/24 12:09:22;;;;;;;15.02;13.13;;;;;;;;;;4910102;29;20159;-75
2022/08/24 12:12:03;;;;;;;15.98;13.25;;;;;;;;;;4907081;29;20107;-76
2022/08/24 12:14:53;;;;;;;15.68;13.45;;;;;;;;;;4901941;29;20063;-75
2022/08/24 12:17:19;;;;;;;15.50;12.40;;;;;;;;;;4891730;29;20044;-76
2022/08/24 12:19:51;;;;;;;17.45;13.60;;;;;;;;;;4896994;29;20047;-75
2022/08/24 12:22:19;;;;;;;18.25;13.48;;;;;;;;;;4887663;29;20052;-76
2022/08/24 12:24:50;;;;;;;15.13;12.90;;;;;;;;;;4896662;29;20036;-76
2022/08/24 12:27:21;;;;;;;17.75;12.65;;;;;;;;;;4896301;29;20156;-76
2022/08/24 12:30:07;;;;;;;18.27;12.02;;;;;;;;;;4896724;29;20045;-75
2022/08/24 12:32:36;;;;;;;16.13;13.55;;;;;;;;;;4896224;29;20039;-76
2022/08/24 12:35:06;;;;;;;15.02;12.88;;;;;;;;;;4927418;29;20071;-76
2022/08/24 12:37:44;;;;;;;15.80;13.55;;;;;;;;;;4934236;29;20027;-76
2022/08/24 12:40:22;;;;;;;16.30;12.55;;;;;;;;;;4955765;28;20177;-74
2022/08/24 12:42:51;;;;;;;19.42;11.65;;;;;;;;;;5011474;28;20065;-76
2022/08/24 12:45:18;;;;;;;13.02;11.68;;;;;;;;;;5010255;28;20108;-75
2022/08/24 12:47:54;;;;;;;14.02;12.57;;;;;;;;;;5011801;28;20030;-76
2022/08/24 12:50:32;;;;;;;13.75;12.35;;;;;;;;;;5011532;28;20037;-75
2022/08/24 12:53:04;;;;;;;14.10;11.85;;;;;;;;;;5011033;28;20077;-74
2022/08/24 12:55:39;;;;;;;20.45;13.50;;;;;;;;;;5059498;28;20564;-75
2022/08/24 12:58:27;;;;;;;16.95;12.95;;;;;;;;;;5068629;28;20040;-75
2022/08/24 13:00:54;;;;;;;15.77;12.55;;;;;;;;;;5062225;28;20486;-75
2022/08/24 13:03:33;;;;;;;14.55;11.98;;;;;;;;;;5065422;28;20147;-76
2022/08/24 13:06:03;;;;;;;15.43;12.82;;;;;;;;;;5065665;28;20092;-75
2022/08/24 13:08:43;;;;;;;13.75;12.27;;;;;;;;;;5066636;28;20028;-73
2022/08/24 13:11:27;;;;;;;13.65;12.05;;;;;;;;;;5073191;28;20036;-74
2022/08/24 13:13:53;;;;;;;13.60;12.18;;;;;;;;;;5073152;28;20009;-76
2022/08/24 13:16:38;;;;;;;17.30;12.52;;;;;;;;;;5072588;28;20028;-75
2022/08/24 13:19:22;;;;;;;14.57;12.40;;;;;;;;;;5065013;28;20025;-76
2022/08/24 13:21:50;;;;;;;12.57;11.07;;;;;;;;;;5073076;28;20025;-75
2022/08/24 13:24:29;;;;;;;19.85;11.00;;;;;;;;;;5072565;28;20056;-77
2022/08/24 13:26:56;;;;;;;13.23;11.13;;;;;;;;;;5072657;28;20037;-76
2022/08/24 13:29:25;;;;;;;16.52;11.50;;;;;;;;;;5072826;28;20028;-69
2022/08/24 13:31:53;;;;;;;14.23;11.85;;;;;;;;;;5073012;28;20534;-74
2022/08/24 13:34:23;;;;;;;15.52;11.20;;;;;;;;;;5070111;28;20036;-77
2022/08/24 13:37:09;;;;;;;19.20;12.35;;;;;;;;;;5063171;28;20024;-76
2022/08/24 13:39:41;;;;;;;12.85;11.45;;;;;;;;;;5058095;28;20029;-72
2022/08/24 13:42:16;;;;;;;23.42;12.43;;;;;;;;;;5070854;28;20051;-74
2022/08/24 13:44:55;;;;;;;13.52;12.05;;;;;;;;;;5072677;28;20029;-76
2022/08/24 13:47:21;;;;;;;16.65;11.73;;;;;;;;;;5073129;28;20028;-76
2022/08/24 13:50:00;;;;;;;17.55;12.18;;;;;;;;;;5076465;28;20017;-75
2022/08/24 13:52:45;;;;;;;12.13;10.93;;;;;;;;;;5079585;28;20028;-76
2022/08/24 13:55:27;;;;;;;16.10;11.20;;;;;;;;;;5069146;28;20136;-76
2022/08/24 13:58:09;;;;;;;16.23;11.13;;;;;;;;;;5063007;28;20032;-76
2022/08/24 14:00:50;;;;;;;17.80;10.48;;;;;;;;;;5056569;28;20040;-75
2022/08/24 14:03:20;;;;;;;13.40;10.52;;;;;;;;;;5072634;28;20051;-78
2022/08/24 14:06:02;;;;;;;15.30;12.00;;;;;;;;;;5071230;28;20025;-74
2022/08/24 14:08:43;;;;;;;14.27;11.60;;;;;;;;;;5060813;28;20025;-70
2022/08/24 14:11:16;;;;;;;16.58;11.18;;;;;;;;;;5074111;28;20440;-77
2022/08/24 14:14:00;;;;;;;15.63;10.97;;;;;;;;;;5068439;28;20027;-76
2022/08/24 14:19:24;;;;;;;15.40;12.05;;;;;;;;;;5076304;28;20085;-72
2022/08/24 14:21:50;;;;;;;18.90;11.63;;;;;;;;;;5076068;28;20095;-74
2022/08/24 14:24:28;;;;;;;21.30;11.70;;;;;;;;;;5075671;28;20474;-74
2022/08/24 14:27:00;;;;;;;22.02;11.05;;;;;;;;;;5070167;28;20103;-73
2022/08/24 14:29:31;;;;;;;14.18;11.18;;;;;;;;;;5073328;28;20031;-74
2022/08/24 14:32:20;;;;;;;21.00;12.07;;;;;;;;;;5076025;28;20161;-76
2022/08/24 14:34:59;;;;;;;27.38;12.40;;;;;;;;;;5073345;28;20442;-74
2022/08/24 14:37:25;;;;;;;13.18;11.52;;;;;;;;;;5070783;28;20028;-76
2022/08/24 14:39:54;;;;;;;14.52;10.88;;;;;;;;;;5066313;28;20025;-77
2022/08/24 14:42:32;;;;;;;12.18;10.95;;;;;;;;;;5072588;28;20019;-77
2022/08/24 14:45:05;;;;;;;11.25;9.73;;;;;;;;;;5071147;28;20114;-77
2022/08/24 14:47:31;;;;;;;17.92;13.13;;;;;;;;;;5075198;28;20100;-77
2022/08/24 14:50:03;;;;;;;16.15;11.05;;;;;;;;;;5075667;28;20040;-76
2022/08/24 14:52:29;;;;;;;11.75;10.23;;;;;;;;;;5075527;28;20104;-77
2022/08/24 14:55:14;;;;;;;50.65;14.75;;;;;;;;;;5075044;28;20080;-77
2022/08/24 14:57:56;;;;;;;29.58;13.48;;;;;;;;;;5071123;28;20046;-77